Metar Aviation Weather Data LICT Vincenzo Florio Trapani-Birgi

9°C Temp
7°C Dewpoint
87% Humidity
Temperature
3 KM/H
2 MPH
2 KTS
210°
South South
West

Wind Speed
Light Rain
Showers
Pressure 1000.92 (hPa) - 29.56 (in)
Visibility 6.2 (mi) - 10 (km)

Current Conditions
LICT
Vincenzo Florio Trapani-Birgi
Metar :LICT 231055Z 21002KT 9999 -RA FEW009CB SCT015 09/07 Q1001 RMK BKN VIS MIN 9999 WIND THR13 15004KT WHT
Wed 23rd January 12:55 pm

Vincenzo Florio Trapani-Birgi
  Metar Aviation API Data Provided by https://www.checkwx.com/ PHP scripts by weather34.com ©2019